sensor_id;sensor_type;location;lat;lon;timestamp;temperature;humidity
1021;DHT22;499;42.648;23.270;2023-11-18T00:01:45;5.10;99.90
1021;DHT22;499;42.648;23.270;2023-11-18T00:04:26;5.10;99.90
1021;DHT22;499;42.648;23.270;2023-11-18T00:07:06;4.20;99.90
1021;DHT22;499;42.648;23.270;2023-11-18T00:09:49;5.00;99.90
1021;DHT22;499;42.648;23.270;2023-11-18T00:12:35;5.00;99.90
1021;DHT22;499;42.648;23.270;2023-11-18T00:15:17;4.90;99.90
1021;DHT22;499;42.648;23.270;2023-11-18T00:17:50;4.80;99.90
1021;DHT22;499;42.648;23.270;2023-11-18T00:20:37;4.90;99.90
1021;DHT22;499;42.648;23.270;2023-11-18T00:23:12;4.90;99.80
1021;DHT22;499;42.648;23.270;2023-11-18T00:25:51;4.90;98.90
1021;DHT22;499;42.648;23.270;2023-11-18T00:28:33;4.90;98.90
1021;DHT22;499;42.648;23.270;2023-11-18T00:38:06;4.80;98.50
1021;DHT22;499;42.648;23.270;2023-11-18T00:40:52;4.80;98.80
1021;DHT22;499;42.648;23.270;2023-11-18T00:43:34;4.80;99.40
1021;DHT22;499;42.648;23.270;2023-11-18T00:46:24;3.70;97.80
1021;DHT22;499;42.648;23.270;2023-11-18T00:49:04;4.80;99.30
1021;DHT22;499;42.648;23.270;2023-11-18T00:51:59;4.70;99.90
1021;DHT22;499;42.648;23.270;2023-11-18T00:54:58;4.60;99.90
1021;DHT22;499;42.648;23.270;2023-11-18T00:57:54;4.60;99.90
1021;DHT22;499;42.648;23.270;2023-11-18T01:00:38;4.50;99.60
1021;DHT22;499;42.648;23.270;2023-11-18T01:03:21;4.60;99.90
1021;DHT22;499;42.648;23.270;2023-11-18T01:06:03;4.60;99.90
1021;DHT22;499;42.648;23.270;2023-11-18T01:08:43;4.60;99.90
1021;DHT22;499;42.648;23.270;2023-11-18T01:11:24;4.50;99.80
1021;DHT22;499;42.648;23.270;2023-11-18T01:14:02;4.60;99.90
1021;DHT22;499;42.648;23.270;2023-11-18T01:16:37;4.60;99.90
1021;DHT22;499;42.648;23.270;2023-11-18T01:19:10;4.50;99.90
1021;DHT22;499;42.648;23.270;2023-11-18T01:21:45;4.50;99.90
1021;DHT22;499;42.648;23.270;2023-11-18T01:24:25;4.40;99.90
1021;DHT22;499;42.648;23.270;2023-11-18T01:27:10;4.40;99.90
1021;DHT22;499;42.648;23.270;2023-11-18T01:29:51;3.60;99.90
1021;DHT22;499;42.648;23.270;2023-11-18T01:32:33;4.30;99.90
1021;DHT22;499;42.648;23.270;2023-11-18T01:35:14;4.30;99.90
1021;DHT22;499;42.648;23.270;2023-11-18T01:37:58;4.20;99.90
1021;DHT22;499;42.648;23.270;2023-11-18T01:40:38;4.10;99.90
1021;DHT22;499;42.648;23.270;2023-11-18T01:43:20;4.10;99.90
1021;DHT22;499;42.648;23.270;2023-11-18T01:45:59;3.60;99.90
1021;DHT22;499;42.648;23.270;2023-11-18T01:48:46;4.00;99.90
1021;DHT22;499;42.648;23.270;2023-11-18T01:51:29;4.10;99.90
1021;DHT22;499;42.648;23.270;2023-11-18T01:54:10;4.00;99.90
1021;DHT22;499;42.648;23.270;2023-11-18T01:56:50;4.10;99.90
1021;DHT22;499;42.648;23.270;2023-11-18T01:59:37;4.10;99.90
1021;DHT22;499;42.648;23.270;2023-11-18T02:02:19;4.10;99.90
1021;DHT22;499;42.648;23.270;2023-11-18T02:04:59;4.10;99.40
1021;DHT22;499;42.648;23.270;2023-11-18T02:07:39;4.00;98.50
1021;DHT22;499;42.648;23.270;2023-11-18T02:10:14;4.10;99.40
1021;DHT22;499;42.648;23.270;2023-11-18T02:12:50;4.20;99.90
1021;DHT22;499;42.648;23.270;2023-11-18T02:15:37;4.20;99.50
1021;DHT22;499;42.648;23.270;2023-11-18T02:18:14;4.10;99.20
1021;DHT22;499;42.648;23.270;2023-11-18T02:20:53;4.10;99.20
1021;DHT22;499;42.648;23.270;2023-11-18T02:23:29;3.90;96.10
1021;DHT22;499;42.648;23.270;2023-11-18T02:26:41;3.90;96.40
1021;DHT22;499;42.648;23.270;2023-11-18T02:29:34;3.80;96.20
1021;DHT22;499;42.648;23.270;2023-11-18T02:39:22;3.70;95.10
1021;DHT22;499;42.648;23.270;2023-11-18T02:42:16;3.60;93.40
1021;DHT22;499;42.648;23.270;2023-11-18T02:45:23;3.60;93.00
1021;DHT22;499;42.648;23.270;2023-11-18T02:48:34;3.70;92.40
1021;DHT22;499;42.648;23.270;2023-11-18T02:51:45;3.60;92.00
1021;DHT22;499;42.648;23.270;2023-11-18T02:54:56;3.60;90.50
1021;DHT22;499;42.648;23.270;2023-11-18T02:57:53;3.70;91.90
1021;DHT22;499;42.648;23.270;2023-11-18T03:00:40;3.60;90.90
1021;DHT22;499;42.648;23.270;2023-11-18T03:03:12;3.50;87.70
1021;DHT22;499;42.648;23.270;2023-11-18T03:05:50;3.60;90.80
1021;DHT22;499;42.648;23.270;2023-11-18T03:08:36;3.60;87.80
1021;DHT22;499;42.648;23.270;2023-11-18T03:11:30;3.40;87.40
1021;DHT22;499;42.648;23.270;2023-11-18T03:18:15;3.10;90.70
1021;DHT22;499;42.648;23.270;2023-11-18T03:25:08;3.20;91.40
1021;DHT22;499;42.648;23.270;2023-11-18T03:28:07;3.20;91.80
1021;DHT22;499;42.648;23.270;2023-11-18T03:31:08;3.20;89.30
1021;DHT22;499;42.648;23.270;2023-11-18T03:37:05;3.20;84.50
1021;DHT22;499;42.648;23.270;2023-11-18T03:40:21;3.10;87.90
1021;DHT22;499;42.648;23.270;2023-11-18T03:43:28;3.10;89.60
1021;DHT22;499;42.648;23.270;2023-11-18T03:46:50;3.00;89.30
1021;DHT22;499;42.648;23.270;2023-11-18T03:49:54;2.80;90.20
1021;DHT22;499;42.648;23.270;2023-11-18T03:52:47;2.70;88.80
1021;DHT22;499;42.648;23.270;2023-11-18T03:56:04;2.60;91.20
1021;DHT22;499;42.648;23.270;2023-11-18T03:58:40;2.60;90.90
1021;DHT22;499;42.648;23.270;2023-11-18T04:01:53;2.50;91.10
1021;DHT22;499;42.648;23.270;2023-11-18T04:04:46;2.60;90.50
1021;DHT22;499;42.648;23.270;2023-11-18T04:08:11;2.50;91.20
1021;DHT22;499;42.648;23.270;2023-11-18T04:11:17;2.40;91.00
1021;DHT22;499;42.648;23.270;2023-11-18T04:14:03;2.30;90.80
1021;DHT22;499;42.648;23.270;2023-11-18T04:19:44;2.40;91.40
1021;DHT22;499;42.648;23.270;2023-11-18T04:22:52;2.50;90.00
1021;DHT22;499;42.648;23.270;2023-11-18T04:25:47;2.40;89.50
1021;DHT22;499;42.648;23.270;2023-11-18T04:28:38;2.40;85.90
1021;DHT22;499;42.648;23.270;2023-11-18T04:31:47;2.40;87.00
1021;DHT22;499;42.648;23.270;2023-11-18T04:34:39;2.30;89.90
1021;DHT22;499;42.648;23.270;2023-11-18T04:41:08;2.20;86.80
1021;DHT22;499;42.648;23.270;2023-11-18T04:44:06;2.20;87.30
1021;DHT22;499;42.648;23.270;2023-11-18T04:47:01;2.20;89.40
1021;DHT22;499;42.648;23.270;2023-11-18T04:50:04;2.20;90.20
1021;DHT22;499;42.648;23.270;2023-11-18T04:52:49;2.30;87.40
1021;DHT22;499;42.648;23.270;2023-11-18T04:55:37;2.20;86.40
1021;DHT22;499;42.648;23.270;2023-11-18T04:58:38;2.30;84.20
1021;DHT22;499;42.648;23.270;2023-11-18T05:01:22;2.20;85.30
1021;DHT22;499;42.648;23.270;2023-11-18T05:03:53;2.10;83.20
1021;DHT22;499;42.648;23.270;2023-11-18T05:06:40;2.20;85.70
1021;DHT22;499;42.648;23.270;2023-11-18T05:09:33;2.30;85.60
1021;DHT22;499;42.648;23.270;2023-11-18T05:12:41;2.20;80.90
1021;DHT22;499;42.648;23.270;2023-11-18T05:15:53;2.30;83.60
1021;DHT22;499;42.648;23.270;2023-11-18T05:18:51;2.20;79.50
1021;DHT22;499;42.648;23.270;2023-11-18T05:21:23;2.40;80.30
1021;DHT22;499;42.648;23.270;2023-11-18T05:23:58;2.20;76.30
1021;DHT22;499;42.648;23.270;2023-11-18T05:26:53;2.30;79.00
1021;DHT22;499;42.648;23.270;2023-11-18T05:29:47;2.20;76.60
1021;DHT22;499;42.648;23.270;2023-11-18T05:33:01;2.20;77.50
1021;DHT22;499;42.648;23.270;2023-11-18T05:35:42;2.20;76.30
1021;DHT22;499;42.648;23.270;2023-11-18T05:38:33;2.20;75.80
1021;DHT22;499;42.648;23.270;2023-11-18T05:41:05;2.30;77.20
1021;DHT22;499;42.648;23.270;2023-11-18T05:43:51;2.40;73.40
1021;DHT22;499;42.648;23.270;2023-11-18T05:46:29;2.30;73.10
1021;DHT22;499;42.648;23.270;2023-11-18T05:49:16;2.30;71.80
1021;DHT22;499;42.648;23.270;2023-11-18T05:51:51;2.30;71.80
1021;DHT22;499;42.648;23.270;2023-11-18T05:54:40;2.30;71.80
1021;DHT22;499;42.648;23.270;2023-11-18T05:57:15;2.30;74.10
1021;DHT22;499;42.648;23.270;2023-11-18T06:00:07;2.30;72.10
1021;DHT22;499;42.648;23.270;2023-11-18T06:02:43;2.30;71.80
1021;DHT22;499;42.648;23.270;2023-11-18T06:05:15;2.30;71.80
1021;DHT22;499;42.648;23.270;2023-11-18T06:08:08;2.30;67.90
1021;DHT22;499;42.648;23.270;2023-11-18T06:10:41;2.50;66.50
1021;DHT22;499;42.648;23.270;2023-11-18T06:13:41;2.50;68.90
1021;DHT22;499;42.648;23.270;2023-11-18T06:16:24;2.50;67.90
1021;DHT22;499;42.648;23.270;2023-11-18T06:19:18;2.40;71.90
1021;DHT22;499;42.648;23.270;2023-11-18T06:25:13;2.20;78.80
1021;DHT22;499;42.648;23.270;2023-11-18T06:27:50;2.10;79.30
1021;DHT22;499;42.648;23.270;2023-11-18T06:30:31;2.10;77.70
1021;DHT22;499;42.648;23.270;2023-11-18T06:33:03;2.20;80.90
1021;DHT22;499;42.648;23.270;2023-11-18T06:35:46;2.20;78.00
1021;DHT22;499;42.648;23.270;2023-11-18T06:38:28;2.30;73.90
1021;DHT22;499;42.648;23.270;2023-11-18T06:41:10;2.40;76.50
1021;DHT22;499;42.648;23.270;2023-11-18T06:43:48;2.50;73.40
1021;DHT22;499;42.648;23.270;2023-11-18T06:46:35;2.50;69.70
1021;DHT22;499;42.648;23.270;2023-11-18T06:49:08;2.60;66.20
1021;DHT22;499;42.648;23.270;2023-11-18T06:51:52;2.70;64.20
1021;DHT22;499;42.648;23.270;2023-11-18T06:54:29;2.80;60.80
1021;DHT22;499;42.648;23.270;2023-11-18T06:57:15;2.90;62.80
1021;DHT22;499;42.648;23.270;2023-11-18T06:59:57;2.80;57.30
1021;DHT22;499;42.648;23.270;2023-11-18T07:02:43;2.90;59.10
1021;DHT22;499;42.648;23.270;2023-11-18T07:05:27;2.80;53.70
1021;DHT22;499;42.648;23.270;2023-11-18T07:08:09;2.90;58.20
1021;DHT22;499;42.648;23.270;2023-11-18T07:10:46;2.80;53.70
1021;DHT22;499;42.648;23.270;2023-11-18T07:13:34;2.70;53.60
1021;DHT22;499;42.648;23.270;2023-11-18T07:16:11;2.90;57.50
1021;DHT22;499;42.648;23.270;2023-11-18T07:18:54;2.80;56.00
1021;DHT22;499;42.648;23.270;2023-11-18T07:21:32;2.80;56.60
1021;DHT22;499;42.648;23.270;2023-11-18T07:24:10;2.60;55.80
1021;DHT22;499;42.648;23.270;2023-11-18T07:27:01;2.70;59.20
1021;DHT22;499;42.648;23.270;2023-11-18T07:29:46;2.80;60.10
1021;DHT22;499;42.648;23.270;2023-11-18T07:32:30;2.80;58.10
1021;DHT22;499;42.648;23.270;2023-11-18T07:35:06;2.60;58.90
1021;DHT22;499;42.648;23.270;2023-11-18T07:37:41;2.70;61.80
1021;DHT22;499;42.648;23.270;2023-11-18T07:40:17;2.60;63.60
1021;DHT22;499;42.648;23.270;2023-11-18T07:43:02;2.50;62.00
1021;DHT22;499;42.648;23.270;2023-11-18T07:45:50;2.50;70.60
1021;DHT22;499;42.648;23.270;2023-11-18T07:48:32;2.40;68.00
1021;DHT22;499;42.648;23.270;2023-11-18T07:51:19;2.40;71.90
1021;DHT22;499;42.648;23.270;2023-11-18T07:53:55;2.40;73.50
1021;DHT22;499;42.648;23.270;2023-11-18T07:56:46;2.30;76.00
1021;DHT22;499;42.648;23.270;2023-11-18T07:59:32;2.50;73.70
1021;DHT22;499;42.648;23.270;2023-11-18T08:02:18;2.40;73.80
1021;DHT22;499;42.648;23.270;2023-11-18T08:04:59;2.20;70.10
1021;DHT22;499;42.648;23.270;2023-11-18T08:07:40;2.20;73.80
1021;DHT22;499;42.648;23.270;2023-11-18T08:10:24;2.30;71.80
1021;DHT22;499;42.648;23.270;2023-11-18T08:13:12;2.30;76.80
1021;DHT22;499;42.648;23.270;2023-11-18T08:16:15;2.30;74.70
1021;DHT22;499;42.648;23.270;2023-11-18T08:18:59;2.50;72.00
1021;DHT22;499;42.648;23.270;2023-11-18T08:21:36;2.40;71.90
1021;DHT22;499;42.648;23.270;2023-11-18T08:24:28;2.30;67.10
1021;DHT22;499;42.648;23.270;2023-11-18T08:27:25;2.40;71.80
1021;DHT22;499;42.648;23.270;2023-11-18T08:30:11;2.40;67.50
1021;DHT22;499;42.648;23.270;2023-11-18T08:32:42;2.60;68.30
1021;DHT22;499;42.648;23.270;2023-11-18T08:35:19;2.60;66.40
1021;DHT22;499;42.648;23.270;2023-11-18T08:37:54;2.60;68.70
1021;DHT22;499;42.648;23.270;2023-11-18T08:40:52;2.60;70.70
1021;DHT22;499;42.648;23.270;2023-11-18T08:43:52;2.60;65.80
1021;DHT22;499;42.648;23.270;2023-11-18T08:46:55;2.40;64.00
1021;DHT22;499;42.648;23.270;2023-11-18T08:49:59;2.40;66.10
1021;DHT22;499;42.648;23.270;2023-11-18T08:53:18;2.30;67.60
1021;DHT22;499;42.648;23.270;2023-11-18T08:56:11;2.20;68.80
1021;DHT22;499;42.648;23.270;2023-11-18T08:58:42;2.20;66.90
1021;DHT22;499;42.648;23.270;2023-11-18T09:01:10;2.20;65.20
1021;DHT22;499;42.648;23.270;2023-11-18T09:03:46;2.20;66.10
1021;DHT22;499;42.648;23.270;2023-11-18T09:06:21;2.30;67.90
1021;DHT22;499;42.648;23.270;2023-11-18T09:09:16;2.30;65.70
1021;DHT22;499;42.648;23.270;2023-11-18T09:12:00;2.40;66.70
1021;DHT22;499;42.648;23.270;2023-11-18T09:14:51;2.20;66.90
1021;DHT22;499;42.648;23.270;2023-11-18T09:17:43;2.20;67.00
1021;DHT22;499;42.648;23.270;2023-11-18T09:20:25;3.00;64.50
1021;DHT22;499;42.648;23.270;2023-11-18T09:23:19;2.30;59.70
1021;DHT22;499;42.648;23.270;2023-11-18T09:26:16;2.30;61.00
1021;DHT22;499;42.648;23.270;2023-11-18T09:29:06;2.40;60.00
1021;DHT22;499;42.648;23.270;2023-11-18T09:32:06;2.30;58.70
1021;DHT22;499;42.648;23.270;2023-11-18T09:34:51;2.40;57.80
1021;DHT22;499;42.648;23.270;2023-11-18T09:37:34;2.50;56.10
1021;DHT22;499;42.648;23.270;2023-11-18T09:40:24;2.50;57.90
1021;DHT22;499;42.648;23.270;2023-11-18T09:43:26;2.40;57.80
1021;DHT22;499;42.648;23.270;2023-11-18T09:46:14;2.50;58.90
1021;DHT22;499;42.648;23.270;2023-11-18T09:49:21;2.40;56.10
1021;DHT22;499;42.648;23.270;2023-11-18T09:52:20;2.40;57.40
1021;DHT22;499;42.648;23.270;2023-11-18T09:55:14;2.50;57.90
1021;DHT22;499;42.648;23.270;2023-11-18T09:57:55;2.40;59.90
1021;DHT22;499;42.648;23.270;2023-11-18T10:00:48;2.30;56.20
1021;DHT22;499;42.648;23.270;2023-11-18T10:03:39;2.40;57.20
1021;DHT22;499;42.648;23.270;2023-11-18T10:06:36;2.40;54.10
1021;DHT22;499;42.648;23.270;2023-11-18T10:09:14;2.40;56.70
1021;DHT22;499;42.648;23.270;2023-11-18T10:12:16;2.50;54.30
1021;DHT22;499;42.648;23.270;2023-11-18T10:15:31;2.40;53.40
1021;DHT22;499;42.648;23.270;2023-11-18T10:22:15;2.50;50.80
1021;DHT22;499;42.648;23.270;2023-11-18T10:28:40;2.50;51.20
1021;DHT22;499;42.648;23.270;2023-11-18T10:31:19;2.50;49.10
1021;DHT22;499;42.648;23.270;2023-11-18T10:33:51;2.60;51.60
1021;DHT22;499;42.648;23.270;2023-11-18T10:36:22;2.70;52.30
1021;DHT22;499;42.648;23.270;2023-11-18T10:38:53;2.70;50.50
1021;DHT22;499;42.648;23.270;2023-11-18T10:41:24;2.70;50.00
1021;DHT22;499;42.648;23.270;2023-11-18T10:44:06;2.60;49.60
1021;DHT22;499;42.648;23.270;2023-11-18T10:46:58;2.70;45.80
1021;DHT22;499;42.648;23.270;2023-11-18T10:49:50;2.70;47.60
1021;DHT22;499;42.648;23.270;2023-11-18T10:52:18;2.60;47.80
1021;DHT22;499;42.648;23.270;2023-11-18T10:54:52;2.50;50.60
1021;DHT22;499;42.648;23.270;2023-11-18T10:57:50;2.60;48.50
1021;DHT22;499;42.648;23.270;2023-11-18T11:00:55;2.70;49.20
1021;DHT22;499;42.648;23.270;2023-11-18T11:03:51;2.60;46.10
1021;DHT22;499;42.648;23.270;2023-11-18T11:06:31;2.60;47.80
1021;DHT22;499;42.648;23.270;2023-11-18T11:09:30;2.60;47.50
1021;DHT22;499;42.648;23.270;2023-11-18T11:12:21;2.60;47.70
1021;DHT22;499;42.648;23.270;2023-11-18T11:15:14;2.60;48.00
1021;DHT22;499;42.648;23.270;2023-11-18T11:18:07;2.60;48.70
1021;DHT22;499;42.648;23.270;2023-11-18T11:21:06;2.60;47.70
1021;DHT22;499;42.648;23.270;2023-11-18T11:23:46;2.50;49.10
1021;DHT22;499;42.648;23.270;2023-11-18T11:26:39;2.50;50.90
1021;DHT22;499;42.648;23.270;2023-11-18T11:29:48;2.60;46.40
1021;DHT22;499;42.648;23.270;2023-11-18T11:32:49;2.50;48.80
1021;DHT22;499;42.648;23.270;2023-11-18T11:35:41;2.50;45.30
1021;DHT22;499;42.648;23.270;2023-11-18T11:38:21;2.10;48.50
1021;DHT22;499;42.648;23.270;2023-11-18T11:41:06;2.40;48.10
1021;DHT22;499;42.648;23.270;2023-11-18T11:43:48;2.50;49.70
1021;DHT22;499;42.648;23.270;2023-11-18T11:46:48;2.50;47.70
1021;DHT22;499;42.648;23.270;2023-11-18T11:49:44;2.40;50.00
1021;DHT22;499;42.648;23.270;2023-11-18T11:52:35;2.40;50.00
1021;DHT22;499;42.648;23.270;2023-11-18T11:55:29;2.10;49.20
1021;DHT22;499;42.648;23.270;2023-11-18T11:58:30;2.50;48.20
1021;DHT22;499;42.648;23.270;2023-11-18T12:01:16;2.60;49.50
1021;DHT22;499;42.648;23.270;2023-11-18T12:03:58;2.60;47.70
1021;DHT22;499;42.648;23.270;2023-11-18T12:06:56;2.70;47.80
1021;DHT22;499;42.648;23.270;2023-11-18T12:09:55;2.70;47.90
1021;DHT22;499;42.648;23.270;2023-11-18T12:12:45;2.80;46.10
1021;DHT22;499;42.648;23.270;2023-11-18T12:15:51;2.60;46.60
1021;DHT22;499;42.648;23.270;2023-11-18T12:18:45;2.70;49.20
1021;DHT22;499;42.648;23.270;2023-11-18T12:22:11;2.40;47.60
1021;DHT22;499;42.648;23.270;2023-11-18T12:28:21;2.70;47.30
1021;DHT22;499;42.648;23.270;2023-11-18T12:31:18;2.60;46.80
1021;DHT22;499;42.648;23.270;2023-11-18T12:34:09;2.70;47.90
1021;DHT22;499;42.648;23.270;2023-11-18T12:43:47;2.80;44.80
1021;DHT22;499;42.648;23.270;2023-11-18T12:46:49;2.90;45.90
1021;DHT22;499;42.648;23.270;2023-11-18T12:49:39;2.70;47.90
1021;DHT22;499;42.648;23.270;2023-11-18T12:52:11;2.80;47.30
1021;DHT22;499;42.648;23.270;2023-11-18T12:54:55;2.90;45.80
1021;DHT22;499;42.648;23.270;2023-11-18T12:57:47;2.70;47.40
1021;DHT22;499;42.648;23.270;2023-11-18T13:00:40;2.80;47.40
1021;DHT22;499;42.648;23.270;2023-11-18T13:03:24;2.80;47.30
1021;DHT22;499;42.648;23.270;2023-11-18T13:06:09;2.90;44.90
1021;DHT22;499;42.648;23.270;2023-11-18T13:09:00;2.90;44.20
1021;DHT22;499;42.648;23.270;2023-11-18T13:12:02;2.90;43.50
1021;DHT22;499;42.648;23.270;2023-11-18T13:14:55;2.90;44.90
1021;DHT22;499;42.648;23.270;2023-11-18T13:17:56;2.80;46.70
1021;DHT22;499;42.648;23.270;2023-11-18T13:21:01;2.70;47.50
1021;DHT22;499;42.648;23.270;2023-11-18T13:24:03;2.60;46.70
1021;DHT22;499;42.648;23.270;2023-11-18T13:26:58;2.60;48.20
1021;DHT22;499;42.648;23.270;2023-11-18T13:29:47;2.60;50.30
1021;DHT22;499;42.648;23.270;2023-11-18T13:32:35;2.70;49.20
1021;DHT22;499;42.648;23.270;2023-11-18T13:35:12;2.70;47.40
1021;DHT22;499;42.648;23.270;2023-11-18T13:37:48;2.60;48.60
1021;DHT22;499;42.648;23.270;2023-11-18T13:40:43;2.60;49.10
1021;DHT22;499;42.648;23.270;2023-11-18T13:43:19;2.60;50.90
1021;DHT22;499;42.648;23.270;2023-11-18T13:46:02;2.70;49.30
1021;DHT22;499;42.648;23.270;2023-11-18T13:48:38;2.60;51.00
1021;DHT22;499;42.648;23.270;2023-11-18T13:51:18;2.60;50.40
1021;DHT22;499;42.648;23.270;2023-11-18T13:53:53;2.60;51.70
1021;DHT22;499;42.648;23.270;2023-11-18T13:56:36;2.60;52.90
1021;DHT22;499;42.648;23.270;2023-11-18T13:59:14;2.50;53.00
1021;DHT22;499;42.648;23.270;2023-11-18T14:01:51;2.50;53.50
1021;DHT22;499;42.648;23.270;2023-11-18T14:04:30;2.60;52.20
1021;DHT22;499;42.648;23.270;2023-11-18T14:07:06;2.50;52.90
1021;DHT22;499;42.648;23.270;2023-11-18T14:09:49;2.50;54.40
1021;DHT22;499;42.648;23.270;2023-11-18T14:15:45;2.50;56.20
1021;DHT22;499;42.648;23.270;2023-11-18T14:18:31;2.30;55.90
1021;DHT22;499;42.648;23.270;2023-11-18T14:21:04;2.40;56.00
1021;DHT22;499;42.648;23.270;2023-11-18T14:23:39;2.50;53.80
1021;DHT22;499;42.648;23.270;2023-11-18T14:26:27;2.50;55.00
1021;DHT22;499;42.648;23.270;2023-11-18T14:29:17;2.50;57.30
1021;DHT22;499;42.648;23.270;2023-11-18T14:31:49;2.50;56.30
1021;DHT22;499;42.648;23.270;2023-11-18T14:34:27;2.40;56.40
1021;DHT22;499;42.648;23.270;2023-11-18T14:37:17;2.50;57.70
1021;DHT22;499;42.648;23.270;2023-11-18T14:40:13;2.50;57.90
1021;DHT22;499;42.648;23.270;2023-11-18T14:43:09;2.30;59.90
1021;DHT22;499;42.648;23.270;2023-11-18T14:45:52;2.30;62.30
1021;DHT22;499;42.648;23.270;2023-11-18T14:48:27;2.40;64.40
1021;DHT22;499;42.648;23.270;2023-11-18T14:51:19;2.40;61.40
1021;DHT22;499;42.648;23.270;2023-11-18T14:54:05;2.40;60.50
1021;DHT22;499;42.648;23.270;2023-11-18T14:56:56;2.40;60.60
1021;DHT22;499;42.648;23.270;2023-11-18T14:59:31;2.40;60.80
1021;DHT22;499;42.648;23.270;2023-11-18T15:02:20;2.30;61.20
1021;DHT22;499;42.648;23.270;2023-11-18T15:04:57;2.30;61.30
1021;DHT22;499;42.648;23.270;2023-11-18T15:07:41;2.40;60.10
1021;DHT22;499;42.648;23.270;2023-11-18T15:10:31;2.50;59.50
1021;DHT22;499;42.648;23.270;2023-11-18T15:13:08;2.50;57.90
1021;DHT22;499;42.648;23.270;2023-11-18T15:15:52;2.40;57.80
1021;DHT22;499;42.648;23.270;2023-11-18T15:18:40;2.30;59.00
1021;DHT22;499;42.648;23.270;2023-11-18T15:21:38;2.30;57.70
1021;DHT22;499;42.648;23.270;2023-11-18T15:24:34;2.40;58.20
1021;DHT22;499;42.648;23.270;2023-11-18T15:27:21;2.30;56.10
1021;DHT22;499;42.648;23.270;2023-11-18T15:30:33;2.40;57.40
1021;DHT22;499;42.648;23.270;2023-11-18T15:33:08;2.30;57.80
1021;DHT22;499;42.648;23.270;2023-11-18T15:35:49;2.30;57.00
1021;DHT22;499;42.648;23.270;2023-11-18T15:38:39;2.30;54.70
1021;DHT22;499;42.648;23.270;2023-11-18T15:41:09;2.30;55.60
1021;DHT22;499;42.648;23.270;2023-11-18T15:43:46;2.40;55.50
1021;DHT22;499;42.648;23.270;2023-11-18T15:46:45;2.30;55.90
1021;DHT22;499;42.648;23.270;2023-11-18T15:49:39;2.40;58.70
1021;DHT22;499;42.648;23.270;2023-11-18T15:52:46;2.20;55.40
1021;DHT22;499;42.648;23.270;2023-11-18T15:55:50;2.40;54.10
1021;DHT22;499;42.648;23.270;2023-11-18T15:58:47;2.40;53.80
1021;DHT22;499;42.648;23.270;2023-11-18T16:08:58;2.40;53.40
1021;DHT22;499;42.648;23.270;2023-11-18T16:11:37;2.40;53.40
1021;DHT22;499;42.648;23.270;2023-11-18T16:14:13;2.30;52.70
1021;DHT22;499;42.648;23.270;2023-11-18T16:16:51;2.40;52.30
1021;DHT22;499;42.648;23.270;2023-11-18T16:19:28;2.40;53.00
1021;DHT22;499;42.648;23.270;2023-11-18T16:22:09;2.40;51.40
1021;DHT22;499;42.648;23.270;2023-11-18T16:24:45;2.50;50.80
1021;DHT22;499;42.648;23.270;2023-11-18T16:27:19;2.50;51.10
1021;DHT22;499;42.648;23.270;2023-11-18T16:29:56;2.50;51.80
1021;DHT22;499;42.648;23.270;2023-11-18T16:32:30;2.40;50.50
1021;DHT22;499;42.648;23.270;2023-11-18T16:35:04;2.40;51.10
1021;DHT22;499;42.648;23.270;2023-11-18T16:37:43;2.40;51.60
1021;DHT22;499;42.648;23.270;2023-11-18T16:40:22;2.50;50.60
1021;DHT22;499;42.648;23.270;2023-11-18T16:42:59;2.50;49.10
1021;DHT22;499;42.648;23.270;2023-11-18T16:45:36;2.40;49.50
1021;DHT22;499;42.648;23.270;2023-11-18T16:48:14;2.40;49.00
1021;DHT22;499;42.648;23.270;2023-11-18T16:50:50;2.40;50.00
1021;DHT22;499;42.648;23.270;2023-11-18T16:53:27;2.40;49.00
1021;DHT22;499;42.648;23.270;2023-11-18T16:56:07;2.40;50.00
1021;DHT22;499;42.648;23.270;2023-11-18T16:58:51;2.50;49.10
1021;DHT22;499;42.648;23.270;2023-11-18T17:01:35;2.40;48.50
1021;DHT22;499;42.648;23.270;2023-11-18T17:04:21;2.30;48.90
1021;DHT22;499;42.648;23.270;2023-11-18T17:06:58;2.30;50.30
1021;DHT22;499;42.648;23.270;2023-11-18T17:09:36;2.40;49.60
1021;DHT22;499;42.648;23.270;2023-11-18T17:12:15;2.40;49.00
1021;DHT22;499;42.648;23.270;2023-11-18T17:15:18;2.40;48.60
1021;DHT22;499;42.648;23.270;2023-11-18T17:18:08;2.40;49.60
1021;DHT22;499;42.648;23.270;2023-11-18T17:20:44;2.30;49.30
1021;DHT22;499;42.648;23.270;2023-11-18T17:23:24;2.40;49.30
1021;DHT22;499;42.648;23.270;2023-11-18T17:26:05;2.40;48.10
1021;DHT22;499;42.648;23.270;2023-11-18T17:28:47;2.40;49.00
1021;DHT22;499;42.648;23.270;2023-11-18T17:31:40;2.40;47.30
1021;DHT22;499;42.648;23.270;2023-11-18T17:34:34;2.40;45.20
1021;DHT22;499;42.648;23.270;2023-11-18T17:37:37;2.50;46.40
1021;DHT22;499;42.648;23.270;2023-11-18T17:40:35;2.40;44.80
1021;DHT22;499;42.648;23.270;2023-11-18T17:43:21;2.40;44.50
1021;DHT22;499;42.648;23.270;2023-11-18T17:46:40;2.40;44.90
1021;DHT22;499;42.648;23.270;2023-11-18T17:49:37;2.40;45.20
1021;DHT22;499;42.648;23.270;2023-11-18T17:52:20;2.40;45.30
1021;DHT22;499;42.648;23.270;2023-11-18T17:55:20;2.50;45.90
1021;DHT22;499;42.648;23.270;2023-11-18T17:58:07;2.40;44.50
1021;DHT22;499;42.648;23.270;2023-11-18T18:00:49;2.40;44.60
1021;DHT22;499;42.648;23.270;2023-11-18T18:03:31;2.50;44.80
1021;DHT22;499;42.648;23.270;2023-11-18T18:06:13;2.50;44.40
1021;DHT22;499;42.648;23.270;2023-11-18T18:09:05;2.50;44.10
1021;DHT22;499;42.648;23.270;2023-11-18T18:12:10;2.50;43.80
1021;DHT22;499;42.648;23.270;2023-11-18T18:15:11;2.50;42.90
1021;DHT22;499;42.648;23.270;2023-11-18T18:18:13;2.50;43.30
1021;DHT22;499;42.648;23.270;2023-11-18T18:21:13;2.50;42.60
1021;DHT22;499;42.648;23.270;2023-11-18T18:24:16;2.50;41.10
1021;DHT22;499;42.648;23.270;2023-11-18T18:27:43;2.50;41.40
1021;DHT22;499;42.648;23.270;2023-11-18T18:35:00;2.50;40.00
1021;DHT22;499;42.648;23.270;2023-11-18T18:41:26;2.50;40.80
1021;DHT22;499;42.648;23.270;2023-11-18T18:44:44;2.50;41.00
1021;DHT22;499;42.648;23.270;2023-11-18T18:47:41;2.60;39.30
1021;DHT22;499;42.648;23.270;2023-11-18T18:53:49;2.50;41.10
1021;DHT22;499;42.648;23.270;2023-11-18T18:56:33;2.60;41.10
1021;DHT22;499;42.648;23.270;2023-11-18T18:59:34;2.50;42.20
1021;DHT22;499;42.648;23.270;2023-11-18T19:06:07;2.50;44.60
1021;DHT22;499;42.648;23.270;2023-11-18T19:26:10;2.40;47.40
1021;DHT22;499;42.648;23.270;2023-11-18T19:29:07;2.30;48.40
1021;DHT22;499;42.648;23.270;2023-11-18T19:32:26;2.50;48.00
1021;DHT22;499;42.648;23.270;2023-11-18T19:35:12;2.50;49.80
1021;DHT22;499;42.648;23.270;2023-11-18T19:38:14;2.40;50.00
1021;DHT22;499;42.648;23.270;2023-11-18T19:44:59;2.50;49.40
1021;DHT22;499;42.648;23.270;2023-11-18T19:51:33;2.50;48.20
1021;DHT22;499;42.648;23.270;2023-11-18T19:54:24;2.50;48.30
1021;DHT22;499;42.648;23.270;2023-11-18T19:57:02;2.40;48.40
1021;DHT22;499;42.648;23.270;2023-11-18T20:03:17;2.40;48.60
1021;DHT22;499;42.648;23.270;2023-11-18T20:06:03;2.30;48.60
1021;DHT22;499;42.648;23.270;2023-11-18T20:09:06;2.40;48.30
1021;DHT22;499;42.648;23.270;2023-11-18T20:11:57;2.40;48.70
1021;DHT22;499;42.648;23.270;2023-11-18T20:15:20;2.40;50.00
1021;DHT22;499;42.648;23.270;2023-11-18T20:22:14;2.40;49.60
1021;DHT22;499;42.648;23.270;2023-11-18T20:25:29;2.40;49.00